createdAt,value
2016-09-06T00:00:40.477Z,0
2016-09-06T00:01:40.460Z,0
2016-09-06T00:02:40.482Z,0
2016-09-06T00:03:40.487Z,0
2016-09-06T00:04:40.496Z,0
2016-09-06T00:05:40.480Z,0
2016-09-06T00:06:40.483Z,0
2016-09-06T00:07:40.497Z,0
2016-09-06T00:08:40.482Z,0
2016-09-06T00:09:40.705Z,0
2016-09-06T00:10:40.483Z,0
2016-09-06T00:11:40.461Z,0
2016-09-06T00:12:40.783Z,0
2016-09-06T00:13:40.791Z,0
2016-09-06T00:14:40.505Z,0
2016-09-06T00:15:40.501Z,0
2016-09-06T00:16:40.485Z,0
2016-09-06T00:17:40.488Z,0
2016-09-06T00:18:40.502Z,0
2016-09-06T00:19:40.783Z,0
2016-09-06T00:20:40.489Z,0
2016-09-06T00:21:40.502Z,0
2016-09-06T00:22:40.491Z,0
2016-09-06T00:23:40.490Z,0
2016-09-06T00:24:40.489Z,0
2016-09-06T00:25:40.492Z,0
2016-09-06T00:26:40.505Z,0
2016-09-06T00:27:40.803Z,0
2016-09-06T00:28:40.509Z,0
2016-09-06T00:29:40.492Z,0
2016-09-06T00:30:40.511Z,0
2016-09-06T00:31:40.511Z,0
2016-09-06T00:32:40.497Z,0
2016-09-06T00:33:40.497Z,0
2016-09-06T00:34:40.885Z,0
2016-09-06T00:35:40.499Z,0
2016-09-06T00:36:40.497Z,0
2016-09-06T00:37:40.497Z,0
2016-09-06T00:38:40.499Z,0
2016-09-06T00:39:40.514Z,0
2016-09-06T00:40:40.518Z,0
2016-09-06T00:41:40.505Z,0
2016-09-06T00:42:40.499Z,0
2016-09-06T00:43:40.518Z,0
2016-09-06T00:44:40.516Z,0
2016-09-06T00:45:40.519Z,0
2016-09-06T00:46:40.508Z,0
2016-09-06T00:47:40.503Z,0
2016-09-06T00:48:40.817Z,0
2016-09-06T00:49:40.816Z,0
2016-09-06T00:50:40.508Z,0
2016-09-06T00:51:40.815Z,0
2016-09-06T00:52:40.511Z,0
2016-09-06T00:53:40.518Z,0
2016-09-06T00:54:40.525Z,0
2016-09-06T00:55:40.523Z,0
2016-09-06T00:56:40.522Z,0
2016-09-06T00:57:40.526Z,0
2016-09-06T00:58:40.815Z,0
2016-09-06T00:59:40.816Z,0
2016-09-06T01:00:40.529Z,0
2016-09-06T01:01:40.509Z,0
2016-09-06T01:02:40.512Z,0
2016-09-06T01:03:40.529Z,0
2016-09-06T01:04:40.525Z,0
2016-09-06T01:05:40.535Z,0
2016-09-06T01:06:40.846Z,0
2016-09-06T01:07:40.515Z,0
2016-09-06T01:08:40.529Z,0
2016-09-06T01:09:40.528Z,0
2016-09-06T01:10:40.839Z,0
2016-09-06T01:11:40.758Z,0
2016-09-06T01:12:40.758Z,0
2016-09-06T01:13:40.536Z,0
2016-09-06T01:14:40.516Z,0
2016-09-06T01:15:40.519Z,0
2016-09-06T01:16:40.537Z,0
2016-09-06T01:17:40.534Z,0
2016-09-06T01:18:40.537Z,0
2016-09-06T01:19:40.534Z,0
2016-09-06T01:20:40.535Z,0
2016-09-06T01:21:40.542Z,0
2016-09-06T01:22:40.535Z,0
2016-09-06T01:23:40.524Z,0
2016-09-06T01:24:40.521Z,0
2016-09-06T01:25:40.538Z,0
2016-09-06T01:26:40.523Z,0
2016-09-06T01:27:40.523Z,0
2016-09-06T01:28:40.542Z,0
2016-09-06T01:29:40.543Z,0
2016-09-06T01:30:40.540Z,0
2016-09-06T01:31:40.583Z,0
2016-09-06T01:32:40.555Z,0
2016-09-06T01:33:40.844Z,0
2016-09-06T01:34:40.848Z,0
2016-09-06T01:35:40.544Z,0
2016-09-06T01:36:40.858Z,0
2016-09-06T01:37:40.551Z,0
2016-09-06T01:38:40.584Z,0
2016-09-06T01:39:40.532Z,0
2016-09-06T01:40:40.545Z,0
2016-09-06T01:41:40.544Z,0
2016-09-06T01:42:40.549Z,0
2016-09-06T01:43:40.549Z,0
2016-09-06T01:44:40.549Z,0
2016-09-06T01:45:40.782Z,0
2016-09-06T01:46:40.554Z,0
2016-09-06T01:47:40.552Z,0
2016-09-06T01:48:40.555Z,0
2016-09-06T01:49:40.550Z,0
2016-09-06T01:50:40.862Z,0
2016-09-06T01:51:40.552Z,0
2016-09-06T01:52:40.860Z,0
2016-09-06T01:53:40.554Z,0
2016-09-06T01:54:40.863Z,0
2016-09-06T01:55:40.557Z,0
2016-09-06T01:56:40.558Z,0
2016-09-06T01:57:40.553Z,0
2016-09-06T01:58:40.555Z,0
2016-09-06T01:59:40.556Z,0
2016-09-06T02:00:40.557Z,0
2016-09-06T02:01:40.558Z,0
2016-09-06T02:02:40.557Z,0
2016-09-06T02:03:40.560Z,0
2016-09-06T02:04:40.558Z,0
2016-09-06T02:05:40.566Z,0
2016-09-06T02:06:40.567Z,0
2016-09-06T02:07:40.569Z,0
2016-09-06T02:08:40.560Z,0
2016-09-06T02:09:40.562Z,0
2016-09-06T02:10:40.558Z,0
2016-09-06T02:11:40.565Z,0
2016-09-06T02:12:40.568Z,0
2016-09-06T02:13:40.562Z,0
2016-09-06T02:14:40.870Z,0
2016-09-06T02:15:40.565Z,0
2016-09-06T02:16:40.563Z,0
2016-09-06T02:17:40.569Z,0
2016-09-06T02:18:40.565Z,0
2016-09-06T02:19:40.570Z,0
2016-09-06T02:20:40.568Z,0
2016-09-06T02:21:40.570Z,0
2016-09-06T02:22:40.579Z,0
2016-09-06T02:23:40.566Z,0
2016-09-06T02:24:40.568Z,0
2016-09-06T02:25:40.571Z,0
2016-09-06T02:26:40.569Z,0
2016-09-06T02:27:40.875Z,0
2016-09-06T02:28:40.563Z,0
2016-09-06T02:29:40.559Z,0
2016-09-06T02:30:40.576Z,0
2016-09-06T02:31:40.558Z,0
2016-09-06T02:32:40.575Z,0
2016-09-06T02:33:40.811Z,0
2016-09-06T02:34:40.622Z,0
2016-09-06T02:35:40.879Z,0
2016-09-06T02:36:40.562Z,0
2016-09-06T02:37:40.589Z,0
2016-09-06T02:38:40.579Z,0
2016-09-06T02:39:40.579Z,0
2016-09-06T02:40:40.577Z,0
2016-09-06T02:41:40.585Z,0
2016-09-06T02:42:40.578Z,0
2016-09-06T02:43:40.585Z,0
2016-09-06T02:44:40.565Z,0
2016-09-06T02:45:40.564Z,0
2016-09-06T02:46:40.567Z,0
2016-09-06T02:47:40.585Z,0
2016-09-06T02:48:40.588Z,0
2016-09-06T02:49:40.582Z,0
2016-09-06T02:50:40.583Z,0
2016-09-06T02:51:40.570Z,0
2016-09-06T02:52:40.871Z,0
2016-09-06T02:53:40.568Z,0
2016-09-06T02:54:40.572Z,0
2016-09-06T02:55:40.587Z,0
2016-09-06T02:56:40.571Z,0
2016-09-06T02:57:40.573Z,0
2016-09-06T02:58:40.593Z,0
2016-09-06T02:59:40.575Z,0
2016-09-06T03:00:40.575Z,0
2016-09-06T03:01:40.573Z,0
2016-09-06T03:02:40.592Z,0
2016-09-06T03:03:40.575Z,0
2016-09-06T03:04:40.578Z,0
2016-09-06T03:05:40.577Z,0
2016-09-06T03:06:40.582Z,0
2016-09-06T03:07:40.595Z,0
2016-09-06T03:08:40.584Z,0
2016-09-06T03:09:40.598Z,0
2016-09-06T03:10:40.816Z,0
2016-09-06T03:11:40.563Z,0
2016-09-06T03:12:40.579Z,0
2016-09-06T03:13:40.596Z,0
2016-09-06T03:14:40.881Z,0
2016-09-06T03:15:40.588Z,0
2016-09-06T03:16:40.563Z,0
2016-09-06T03:17:40.574Z,0
2016-09-06T03:18:40.562Z,0
2016-09-06T03:19:40.583Z,0
2016-09-06T03:20:41.129Z,0
2016-09-06T03:21:40.570Z,0
2016-09-06T03:22:40.572Z,0
2016-09-06T03:23:40.825Z,0
2016-09-06T03:24:40.564Z,0
2016-09-06T03:25:40.880Z,0
2016-09-06T03:26:40.572Z,0
2016-09-06T03:27:40.588Z,0
2016-09-06T03:28:40.574Z,0
2016-09-06T03:29:40.573Z,0
2016-09-06T03:30:40.574Z,0
2016-09-06T03:31:40.566Z,0
2016-09-06T03:32:40.885Z,0
2016-09-06T03:33:40.810Z,0
2016-09-06T03:34:40.719Z,0
2016-09-06T03:35:40.564Z,0
2016-09-06T03:36:40.566Z,0
2016-09-06T03:37:40.572Z,0
2016-09-06T03:38:40.593Z,0
2016-09-06T03:39:40.575Z,0
2016-09-06T03:40:40.570Z,0
2016-09-06T03:41:40.814Z,0
2016-09-06T03:42:40.576Z,0
2016-09-06T03:43:40.576Z,0
2016-09-06T03:44:40.571Z,0
2016-09-06T03:45:40.573Z,0
2016-09-06T03:46:40.565Z,0
2016-09-06T03:47:40.830Z,0
2016-09-06T03:48:40.814Z,0
2016-09-06T03:49:40.566Z,0
2016-09-06T03:50:40.572Z,0
2016-09-06T03:51:40.573Z,0
2016-09-06T03:52:40.574Z,0
2016-09-06T03:53:40.881Z,0
2016-09-06T03:54:40.569Z,0
2016-09-06T03:55:40.573Z,0
2016-09-06T03:56:40.573Z,0
2016-09-06T03:57:40.561Z,0
2016-09-06T03:58:40.574Z,0
2016-09-06T03:59:40.570Z,0
2016-09-06T04:00:40.572Z,0
2016-09-06T04:01:40.567Z,0
2016-09-06T04:02:40.567Z,0
2016-09-06T04:03:40.569Z,0
2016-09-06T04:04:40.888Z,0
2016-09-06T04:05:40.568Z,0
2016-09-06T04:06:40.566Z,0
2016-09-06T04:07:40.570Z,0
2016-09-06T04:08:40.882Z,0
2016-09-06T04:09:40.568Z,0
2016-09-06T04:10:40.572Z,0
2016-09-06T04:11:40.570Z,0
2016-09-06T04:12:40.889Z,0
2016-09-06T04:13:40.876Z,0
2016-09-06T04:14:40.568Z,0
2016-09-06T04:15:40.572Z,0
2016-09-06T04:16:40.568Z,0
2016-09-06T04:17:40.575Z,0
2016-09-06T04:18:40.887Z,0
2016-09-06T04:19:40.571Z,0
2016-09-06T04:20:40.580Z,0
2016-09-06T04:21:40.577Z,0
2016-09-06T04:22:40.581Z,0
2016-09-06T04:23:40.579Z,0
2016-09-06T04:24:40.571Z,0
2016-09-06T04:25:40.581Z,0
2016-09-06T04:26:40.563Z,0
2016-09-06T04:27:40.575Z,0
2016-09-06T04:28:40.580Z,0
2016-09-06T04:29:40.571Z,0
2016-09-06T04:30:40.566Z,0
2016-09-06T04:31:40.564Z,0
2016-09-06T04:32:40.581Z,0
2016-09-06T04:33:40.580Z,0
2016-09-06T04:34:40.661Z,0
2016-09-06T04:35:40.568Z,0
2016-09-06T04:36:40.566Z,0
2016-09-06T04:37:40.583Z,0
2016-09-06T04:38:40.573Z,0
2016-09-06T04:39:40.587Z,0
2016-09-06T04:40:40.574Z,0
2016-09-06T04:41:40.570Z,0
2016-09-06T04:42:40.764Z,5
2016-09-06T04:43:40.588Z,5
2016-09-06T04:44:40.570Z,5
2016-09-06T04:45:40.570Z,5
2016-09-06T04:46:40.555Z,5
2016-09-06T04:47:40.558Z,5
2016-09-06T04:48:40.554Z,5
2016-09-06T04:49:40.574Z,10
2016-09-06T04:50:40.555Z,10
2016-09-06T04:51:40.554Z,10
2016-09-06T04:52:40.871Z,10
2016-09-06T04:53:40.562Z,10
2016-09-06T04:54:40.560Z,15
2016-09-06T04:55:40.561Z,15
2016-09-06T04:56:40.558Z,15
2016-09-06T04:57:41.184Z,15
2016-09-06T04:58:40.568Z,20
2016-09-06T04:59:40.879Z,20
2016-09-06T05:00:40.565Z,20
2016-09-06T05:01:40.556Z,25
2016-09-06T05:02:40.559Z,25
2016-09-06T05:03:40.567Z,25
2016-09-06T05:04:40.557Z,25
2016-09-06T05:05:40.563Z,30
2016-09-06T05:06:40.558Z,30
2016-09-06T05:07:40.558Z,30
2016-09-06T05:08:40.879Z,35
2016-09-06T05:09:40.560Z,35
2016-09-06T05:10:40.555Z,35
2016-09-06T05:11:40.560Z,40
2016-09-06T05:12:40.879Z,40
2016-09-06T05:13:40.559Z,40
2016-09-06T05:14:40.557Z,45
2016-09-06T05:15:40.562Z,50
2016-09-06T05:16:40.553Z,50
2016-09-06T05:17:40.551Z,60
2016-09-06T05:18:40.555Z,65
2016-09-06T05:19:40.558Z,75
2016-09-06T05:20:40.563Z,80
2016-09-06T05:21:40.565Z,80
2016-09-06T05:22:40.566Z,80
2016-09-06T05:23:40.553Z,85
2016-09-06T05:24:40.563Z,85
2016-09-06T05:25:40.567Z,90
2016-09-06T05:26:40.550Z,95
2016-09-06T05:27:40.558Z,95
2016-09-06T05:28:40.557Z,100
2016-09-06T05:29:40.571Z,100
2016-09-06T05:30:41.258Z,105
2016-09-06T05:31:40.802Z,105
2016-09-06T05:32:40.567Z,105
2016-09-06T05:33:40.557Z,110
2016-09-06T05:34:40.615Z,115
2016-09-06T05:35:40.561Z,115
2016-09-06T05:36:40.576Z,115
2016-09-06T05:37:40.563Z,115
2016-09-06T05:38:40.575Z,115
2016-09-06T05:39:40.587Z,110
2016-09-06T05:40:40.584Z,110
2016-09-06T05:41:40.584Z,105
2016-09-06T05:42:40.590Z,105
2016-09-06T05:43:40.584Z,100
2016-09-06T05:44:40.895Z,100
2016-09-06T05:45:40.590Z,100
2016-09-06T05:46:40.586Z,95
2016-09-06T05:47:40.587Z,95
2016-09-06T05:48:40.590Z,95
2016-09-06T05:49:40.586Z,100
2016-09-06T05:50:40.591Z,100
2016-09-06T05:51:40.623Z,100
2016-09-06T05:52:40.590Z,105
2016-09-06T05:53:40.608Z,105
2016-09-06T05:54:40.599Z,105
2016-09-06T05:55:40.843Z,105
2016-09-06T05:56:40.601Z,105
2016-09-06T05:57:40.609Z,110
2016-09-06T05:58:40.600Z,110
2016-09-06T05:59:40.610Z,110
2016-09-06T06:00:40.613Z,110
2016-09-06T06:01:40.616Z,110
2016-09-06T06:02:40.613Z,110
2016-09-06T06:03:40.633Z,115
2016-09-06T06:04:40.681Z,115
2016-09-06T06:05:40.686Z,115
2016-09-06T06:06:40.640Z,115
2016-09-06T06:07:40.636Z,115
2016-09-06T06:08:40.630Z,120
2016-09-06T06:09:40.640Z,120
2016-09-06T06:10:40.720Z,120
2016-09-06T06:11:40.942Z,120
2016-09-06T06:12:40.621Z,120
2016-09-06T06:13:40.648Z,125
2016-09-06T06:14:40.645Z,125
2016-09-06T06:15:40.993Z,125
2016-09-06T06:16:40.954Z,125
2016-09-06T06:17:40.658Z,125
2016-09-06T06:18:40.658Z,125
2016-09-06T06:19:40.948Z,130
2016-09-06T06:20:40.699Z,130
2016-09-06T06:21:40.663Z,130
2016-09-06T06:22:40.642Z,135
2016-09-06T06:23:40.650Z,135
2016-09-06T06:24:40.662Z,140
2016-09-06T06:25:40.643Z,145
2016-09-06T06:26:40.660Z,145
2016-09-06T06:27:40.947Z,155
2016-09-06T06:28:40.652Z,160
2016-09-06T06:29:40.644Z,185
2016-09-06T06:30:40.646Z,190
2016-09-06T06:31:40.667Z,180
2016-09-06T06:32:40.656Z,190
2016-09-06T06:33:40.666Z,200
2016-09-06T06:34:40.710Z,205
2016-09-06T06:35:40.733Z,210
2016-09-06T06:36:40.665Z,210
2016-09-06T06:37:40.646Z,215
2016-09-06T06:38:40.911Z,215
2016-09-06T06:39:40.910Z,215
2016-09-06T06:40:40.661Z,220
2016-09-06T06:41:40.662Z,220
2016-09-06T06:42:40.669Z,220
2016-09-06T06:43:40.669Z,225
2016-09-06T06:44:40.991Z,225
2016-09-06T06:45:40.679Z,225
2016-09-06T06:46:40.942Z,225
2016-09-06T06:47:41.022Z,230
2016-09-06T06:48:40.705Z,230
2016-09-06T06:49:40.715Z,230
2016-09-06T06:50:40.713Z,235
2016-09-06T06:51:40.715Z,235
2016-09-06T06:52:40.719Z,235
2016-09-06T06:53:40.719Z,240
2016-09-06T06:54:40.719Z,240
2016-09-06T06:55:40.724Z,240
2016-09-06T06:56:40.728Z,240
2016-09-06T06:57:41.064Z,245
2016-09-06T06:58:40.999Z,245
2016-09-06T06:59:40.746Z,245
2016-09-06T07:00:40.772Z,245
2016-09-06T07:01:40.771Z,245
2016-09-06T07:02:40.778Z,245
2016-09-06T07:03:40.773Z,245
2016-09-06T07:04:40.795Z,235
2016-09-06T07:05:40.780Z,220
2016-09-06T07:06:40.779Z,215
2016-09-06T07:07:40.797Z,215
2016-09-06T07:08:40.800Z,205
2016-09-06T07:09:40.798Z,205
2016-09-06T07:10:40.806Z,210
2016-09-06T07:11:41.063Z,210
2016-09-06T07:12:40.845Z,210
2016-09-06T07:13:40.821Z,210
2016-09-06T07:14:40.829Z,210
2016-09-06T07:15:40.837Z,210
2016-09-06T07:16:40.835Z,210
2016-09-06T07:17:40.857Z,225
2016-09-06T07:18:40.852Z,230
2016-09-06T07:19:40.855Z,225
2016-09-06T07:20:40.861Z,235
2016-09-06T07:21:40.870Z,245
2016-09-06T07:22:40.877Z,250
2016-09-06T07:23:40.872Z,255
2016-09-06T07:24:40.875Z,255
2016-09-06T07:25:40.884Z,260
2016-09-06T07:26:40.883Z,260
2016-09-06T07:27:40.893Z,260
2016-09-06T07:28:40.908Z,260
2016-09-06T07:29:40.905Z,260
2016-09-06T07:30:40.914Z,260
2016-09-06T07:31:40.920Z,260
2016-09-06T07:32:40.922Z,260
2016-09-06T07:33:40.925Z,260
2016-09-06T07:34:40.992Z,260
2016-09-06T07:35:41.261Z,260
2016-09-06T07:36:41.259Z,260
2016-09-06T07:37:41.264Z,260
2016-09-06T07:38:40.955Z,260
2016-09-06T07:39:40.961Z,260
2016-09-06T07:40:40.971Z,260
2016-09-06T07:41:40.985Z,260
2016-09-06T07:42:40.975Z,260
2016-09-06T07:43:41.313Z,255
2016-09-06T07:44:41.003Z,245
2016-09-06T07:45:41.011Z,235
2016-09-06T07:46:41.011Z,220
2016-09-06T07:47:41.327Z,210
2016-09-06T07:48:41.032Z,205
2016-09-06T07:49:41.029Z,200
2016-09-06T07:50:41.039Z,200
2016-09-06T07:51:41.050Z,200
2016-09-06T07:52:41.037Z,200
2016-09-06T07:53:41.045Z,200
2016-09-06T07:54:41.362Z,240
2016-09-06T07:55:41.078Z,240
2016-09-06T07:56:41.068Z,240
2016-09-06T07:57:41.075Z,250
2016-09-06T07:58:41.074Z,245
2016-09-06T07:59:41.086Z,245
2016-09-06T08:00:41.144Z,245
2016-09-06T08:01:41.109Z,245
2016-09-06T08:02:41.104Z,245
2016-09-06T08:03:41.107Z,245
2016-09-06T08:04:41.114Z,250
2016-09-06T08:05:41.111Z,250
2016-09-06T08:06:41.120Z,250
2016-09-06T08:07:41.116Z,245
2016-09-06T08:08:41.135Z,245
2016-09-06T08:09:41.458Z,245
2016-09-06T08:10:41.150Z,250
2016-09-06T08:11:41.459Z,250
2016-09-06T08:12:41.470Z,245
2016-09-06T08:13:41.157Z,240
2016-09-06T08:14:41.166Z,240
2016-09-06T08:15:41.173Z,240
2016-09-06T08:16:41.176Z,245
2016-09-06T08:17:41.191Z,240
2016-09-06T08:18:41.429Z,240
2016-09-06T08:19:41.195Z,240
2016-09-06T08:20:41.201Z,240
2016-09-06T08:21:41.217Z,235
2016-09-06T08:22:41.542Z,235
2016-09-06T08:23:41.243Z,235
2016-09-06T08:24:41.225Z,235
2016-09-06T08:25:41.320Z,230
2016-09-06T08:26:41.232Z,230
2016-09-06T08:27:41.257Z,230
2016-09-06T08:28:41.254Z,230
2016-09-06T08:29:41.252Z,230
2016-09-06T08:30:41.268Z,230
2016-09-06T08:31:41.279Z,225
2016-09-06T08:32:41.278Z,225
2016-09-06T08:33:41.291Z,220
2016-09-06T08:34:41.663Z,220
2016-09-06T08:35:41.298Z,220
2016-09-06T08:36:41.302Z,220
2016-09-06T08:37:41.305Z,220
2016-09-06T08:38:41.311Z,220
2016-09-06T08:39:41.316Z,220
2016-09-06T08:40:41.337Z,215
2016-09-06T08:41:41.332Z,215
2016-09-06T08:42:41.326Z,215
2016-09-06T08:43:41.341Z,220
2016-09-06T08:44:41.354Z,220
2016-09-06T08:45:41.356Z,220
2016-09-06T08:46:41.356Z,220
2016-09-06T08:47:41.358Z,220
2016-09-06T08:48:41.362Z,220
2016-09-06T08:49:41.379Z,215
2016-09-06T08:50:41.365Z,215
2016-09-06T08:51:41.374Z,215
2016-09-06T08:52:41.385Z,225
2016-09-06T08:53:41.378Z,220
2016-09-06T08:54:41.389Z,220
2016-09-06T08:55:41.419Z,225
2016-09-06T08:56:41.395Z,225
2016-09-06T08:57:41.408Z,225
2016-09-06T08:58:41.426Z,230
2016-09-06T08:59:41.967Z,225
2016-09-06T09:00:41.423Z,225
2016-09-06T09:01:41.410Z,225
2016-09-06T09:02:41.424Z,225
2016-09-06T09:03:41.737Z,230
2016-09-06T09:04:41.422Z,230
2016-09-06T09:05:41.429Z,230
2016-09-06T09:06:41.677Z,230
2016-09-06T09:07:41.444Z,230
2016-09-06T09:08:41.443Z,230
2016-09-06T09:09:41.446Z,230
2016-09-06T09:10:41.475Z,230
2016-09-06T09:11:41.852Z,225
2016-09-06T09:12:41.447Z,155
2016-09-06T09:13:41.458Z,195
2016-09-06T09:14:41.661Z,205
2016-09-06T09:15:41.468Z,205
2016-09-06T09:16:41.489Z,205
2016-09-06T09:17:41.482Z,205
2016-09-06T09:18:41.484Z,210
2016-09-06T09:19:41.482Z,210
2016-09-06T09:20:41.480Z,205
2016-09-06T09:21:41.485Z,205
2016-09-06T09:22:41.803Z,205
2016-09-06T09:23:41.487Z,205
2016-09-06T09:24:41.496Z,210
2016-09-06T09:25:41.501Z,210
2016-09-06T09:26:41.491Z,215
2016-09-06T09:27:41.503Z,215
2016-09-06T09:28:41.507Z,210
2016-09-06T09:29:41.509Z,200
2016-09-06T09:30:41.511Z,205
2016-09-06T09:31:41.512Z,165
2016-09-06T09:32:41.522Z,180
2016-09-06T09:33:41.829Z,200
2016-09-06T09:34:41.825Z,195
2016-09-06T09:35:41.530Z,200
2016-09-06T09:36:41.546Z,200
2016-09-06T09:37:41.861Z,180
2016-09-06T09:38:41.548Z,145
2016-09-06T09:39:41.539Z,145
2016-09-06T09:40:41.549Z,145
2016-09-06T09:41:41.550Z,145
2016-09-06T09:42:41.550Z,165
2016-09-06T09:43:41.560Z,195
2016-09-06T09:44:41.556Z,205
2016-09-06T09:45:41.558Z,210
2016-09-06T09:46:41.561Z,215
2016-09-06T09:47:41.881Z,215
2016-09-06T09:48:41.577Z,215
2016-09-06T09:49:41.888Z,215
2016-09-06T09:50:41.592Z,210
2016-09-06T09:51:41.590Z,210
2016-09-06T09:52:41.587Z,210
2016-09-06T09:53:41.592Z,210
2016-09-06T09:54:41.589Z,215
2016-09-06T09:55:41.652Z,210
2016-09-06T09:56:41.593Z,205
2016-09-06T09:57:41.598Z,200
2016-09-06T09:58:41.595Z,200
2016-09-06T09:59:41.610Z,200
2016-09-06T10:00:41.607Z,205
2016-09-06T10:01:41.608Z,205
2016-09-06T10:02:41.614Z,205
2016-09-06T10:03:41.616Z,210
2016-09-06T10:04:41.627Z,210
2016-09-06T10:05:41.622Z,215
2016-09-06T10:06:41.620Z,220
2016-09-06T10:07:41.655Z,225
2016-09-06T10:08:41.632Z,225
2016-09-06T10:09:41.952Z,225
2016-09-06T10:10:41.650Z,215
2016-09-06T10:11:41.645Z,175
2016-09-06T10:12:41.658Z,165
2016-09-06T10:13:41.644Z,220
2016-09-06T10:14:41.661Z,215
2016-09-06T10:15:41.953Z,215
2016-09-06T10:16:41.687Z,220
2016-09-06T10:17:42.368Z,215
2016-09-06T10:18:41.688Z,215
2016-09-06T10:19:41.917Z,215
2016-09-06T10:20:41.688Z,215
2016-09-06T10:21:41.691Z,190
2016-09-06T10:22:41.692Z,225
2016-09-06T10:23:41.693Z,225
2016-09-06T10:24:41.694Z,220
2016-09-06T10:25:41.722Z,215
2016-09-06T10:26:41.710Z,215
2016-09-06T10:27:41.710Z,215
2016-09-06T10:28:41.708Z,210
2016-09-06T10:29:41.719Z,215
2016-09-06T10:30:41.961Z,215
2016-09-06T10:31:41.728Z,210
2016-09-06T10:32:41.717Z,215
2016-09-06T10:33:41.743Z,215
2016-09-06T10:34:41.935Z,170
2016-09-06T10:35:41.762Z,190
2016-09-06T10:36:41.760Z,220
2016-09-06T10:37:41.802Z,215
2016-09-06T10:38:41.759Z,210
2016-09-06T10:39:41.764Z,190
2016-09-06T10:40:41.761Z,225
2016-09-06T10:41:41.764Z,215
2016-09-06T10:42:41.762Z,175
2016-09-06T10:43:41.763Z,205
2016-09-06T10:44:41.761Z,175
2016-09-06T10:45:41.772Z,180
2016-09-06T10:46:41.778Z,180
2016-09-06T10:47:41.791Z,175
2016-09-06T10:48:41.801Z,165
2016-09-06T10:49:41.795Z,165
2016-09-06T10:50:41.797Z,165
2016-09-06T10:51:41.794Z,165
2016-09-06T10:52:41.802Z,165
2016-09-06T10:53:41.810Z,165
2016-09-06T10:54:42.299Z,165
2016-09-06T10:55:41.807Z,170
2016-09-06T10:56:41.818Z,215
2016-09-06T10:57:41.827Z,235
2016-09-06T10:58:41.832Z,245
2016-09-06T10:59:42.140Z,265
2016-09-06T11:00:41.831Z,280
2016-09-06T11:01:44.080Z,285
2016-09-06T11:02:44.990Z,290
2016-09-06T11:03:44.612Z,300
2016-09-06T11:04:44.140Z,260
2016-09-06T11:05:42.949Z,275
2016-09-06T11:06:42.174Z,305
2016-09-06T11:07:44.450Z,310
2016-09-06T11:08:44.236Z,305
2016-09-06T11:09:41.856Z,305
2016-09-06T11:10:42.328Z,315
2016-09-06T11:11:44.128Z,320
2016-09-06T11:12:42.225Z,325
2016-09-06T11:13:43.721Z,330
2016-09-06T11:14:44.104Z,330
2016-09-06T11:15:43.842Z,335
2016-09-06T11:16:43.573Z,305
2016-09-06T11:17:43.949Z,315
2016-09-06T11:18:44.390Z,325
2016-09-06T11:19:44.852Z,310
2016-09-06T11:20:42.512Z,280
2016-09-06T11:21:42.736Z,275
2016-09-06T11:22:43.183Z,265
2016-09-06T11:23:43.667Z,265
2016-09-06T11:24:44.410Z,265
2016-09-06T11:25:42.769Z,260
2016-09-06T11:26:41.959Z,265
2016-09-06T11:27:41.927Z,250
2016-09-06T11:28:41.933Z,240
2016-09-06T11:29:42.196Z,230
2016-09-06T11:30:41.944Z,225
2016-09-06T11:31:42.284Z,215
2016-09-06T11:32:41.950Z,210
2016-09-06T11:33:41.952Z,200
2016-09-06T11:34:42.917Z,200
2016-09-06T11:35:41.963Z,195
2016-09-06T11:36:41.966Z,205
2016-09-06T11:37:41.965Z,215
2016-09-06T11:38:41.979Z,220
2016-09-06T11:39:41.980Z,215
2016-09-06T11:40:41.987Z,215
2016-09-06T11:41:41.993Z,260
2016-09-06T11:42:42.239Z,220
2016-09-06T11:43:41.999Z,250
2016-09-06T11:44:41.999Z,250
2016-09-06T11:45:42.002Z,245
2016-09-06T11:46:42.021Z,255
2016-09-06T11:47:42.254Z,260
2016-09-06T11:48:42.033Z,265
2016-09-06T11:49:42.017Z,265
2016-09-06T11:50:42.026Z,270
2016-09-06T11:51:42.068Z,270
2016-09-06T11:52:42.065Z,275
2016-09-06T11:53:42.036Z,280
2016-09-06T11:54:42.069Z,285
2016-09-06T11:55:42.072Z,290
2016-09-06T11:56:42.074Z,295
2016-09-06T11:57:42.070Z,295
2016-09-06T11:58:42.387Z,290
2016-09-06T11:59:42.082Z,285
2016-09-06T12:00:42.080Z,280
2016-09-06T12:01:42.074Z,260
2016-09-06T12:02:42.109Z,245
2016-09-06T12:03:42.120Z,220
2016-09-06T12:04:42.398Z,210
2016-09-06T12:05:42.102Z,210
2016-09-06T12:06:42.094Z,210
2016-09-06T12:07:42.112Z,240
2016-09-06T12:08:42.131Z,245
2016-09-06T12:09:42.121Z,215
2016-09-06T12:10:42.466Z,195
2016-09-06T12:11:42.137Z,195
2016-09-06T12:12:42.136Z,195
2016-09-06T12:13:42.137Z,195
2016-09-06T12:14:42.150Z,195
2016-09-06T12:15:42.142Z,200
2016-09-06T12:16:42.144Z,210
2016-09-06T12:17:42.145Z,265
2016-09-06T12:18:42.458Z,275
2016-09-06T12:19:42.153Z,280
2016-09-06T12:20:42.173Z,280
2016-09-06T12:21:42.399Z,285
2016-09-06T12:22:42.180Z,290
2016-09-06T12:23:42.178Z,300
2016-09-06T12:24:42.178Z,305
2016-09-06T12:25:42.194Z,310
2016-09-06T12:26:42.194Z,320
2016-09-06T12:27:42.181Z,325
2016-09-06T12:28:42.191Z,315
2016-09-06T12:29:42.201Z,300
2016-09-06T12:30:42.200Z,285
2016-09-06T12:31:42.204Z,280
2016-09-06T12:32:42.206Z,265
2016-09-06T12:33:42.203Z,250
2016-09-06T12:34:42.269Z,245
2016-09-06T12:35:42.226Z,240
2016-09-06T12:36:42.232Z,230
2016-09-06T12:37:42.226Z,195
2016-09-06T12:38:42.236Z,200
2016-09-06T12:39:42.257Z,185
2016-09-06T12:40:42.252Z,185
2016-09-06T12:41:42.255Z,180
2016-09-06T12:42:42.256Z,180
2016-09-06T12:43:42.265Z,180
2016-09-06T12:44:42.267Z,180
2016-09-06T12:45:42.273Z,180
2016-09-06T12:46:42.266Z,175
2016-09-06T12:47:42.267Z,175
2016-09-06T12:48:42.285Z,175
2016-09-06T12:49:42.277Z,185
2016-09-06T12:50:42.277Z,175
2016-09-06T12:51:42.280Z,205
2016-09-06T12:52:42.296Z,215
2016-09-06T12:53:42.537Z,205
2016-09-06T12:54:42.293Z,205
2016-09-06T12:55:42.298Z,175
2016-09-06T12:56:42.330Z,165
2016-09-06T12:57:42.337Z,165
2016-09-06T12:58:42.323Z,165
2016-09-06T12:59:42.339Z,170
2016-09-06T13:00:42.336Z,170
2016-09-06T13:01:42.333Z,185
2016-09-06T13:02:42.640Z,170
2016-09-06T13:03:42.335Z,190
2016-09-06T13:04:42.334Z,200
2016-09-06T13:05:42.349Z,205
2016-09-06T13:06:42.353Z,195
2016-09-06T13:07:42.342Z,190
2016-09-06T13:08:42.355Z,210
2016-09-06T13:09:42.353Z,215
2016-09-06T13:10:42.483Z,220
2016-09-06T13:11:42.359Z,225
2016-09-06T13:12:42.363Z,235
2016-09-06T13:13:42.371Z,240
2016-09-06T13:14:42.405Z,245
2016-09-06T13:15:42.702Z,250
2016-09-06T13:16:43.324Z,240
2016-09-06T13:17:42.704Z,235
2016-09-06T13:18:42.705Z,225
2016-09-06T13:19:43.015Z,225
2016-09-06T13:20:42.420Z,230
2016-09-06T13:21:42.714Z,235
2016-09-06T13:22:42.409Z,235
2016-09-06T13:23:42.724Z,230
2016-09-06T13:24:42.725Z,230
2016-09-06T13:25:42.747Z,230
2016-09-06T13:26:43.074Z,235
2016-09-06T13:27:42.749Z,240
2016-09-06T13:28:42.440Z,245
2016-09-06T13:29:42.442Z,250
2016-09-06T13:30:42.497Z,240
2016-09-06T13:31:43.158Z,225
2016-09-06T13:32:42.451Z,220
2016-09-06T13:33:42.467Z,210
2016-09-06T13:34:42.655Z,200
2016-09-06T13:35:43.082Z,170
2016-09-06T13:36:42.794Z,170
2016-09-06T13:37:42.474Z,190
2016-09-06T13:38:42.483Z,190
2016-09-06T13:39:42.792Z,190
2016-09-06T13:40:42.486Z,190
2016-09-06T13:41:42.495Z,190
2016-09-06T13:42:42.498Z,190
2016-09-06T13:43:42.503Z,190
2016-09-06T13:44:42.512Z,185
2016-09-06T13:45:42.504Z,185
2016-09-06T13:46:42.506Z,185
2016-09-06T13:47:42.523Z,185
2016-09-06T13:48:42.524Z,180
2016-09-06T13:49:42.844Z,180
2016-09-06T13:50:42.571Z,180
2016-09-06T13:51:42.547Z,175
2016-09-06T13:52:42.566Z,170
2016-09-06T13:53:42.549Z,185
2016-09-06T13:54:42.577Z,180
2016-09-06T13:55:42.554Z,185
2016-09-06T13:56:42.550Z,175
2016-09-06T13:57:42.575Z,175
2016-09-06T13:58:42.557Z,175
2016-09-06T13:59:42.591Z,175
2016-09-06T14:00:42.567Z,175
2016-09-06T14:01:42.578Z,175
2016-09-06T14:02:42.590Z,180
2016-09-06T14:03:42.605Z,175
2016-09-06T14:04:42.608Z,175
2016-09-06T14:05:42.615Z,175
2016-09-06T14:06:42.670Z,180
2016-09-06T14:07:42.672Z,180